Flight Track Log - Related Links

Times and Time Zones

All times are in EDT time to prevent confusion due to time zone crossing. See the LYM1725 flight status page for this flight to view local times or setup timezone preferences in your user account.

Time Position Orientation Groundspeed Altitude Reporting Facility
EDT Latitude Longitude Course Direction KTS MPH feet Rate Location/Type
Tue 08:34:13 AM 39.9500 -104.6833 341° North 183 211 8,400  Level Denver TRACON
Tue 08:35:09 AM 39.9894 -104.7050 337° Northwest 190 219 9,500 821 Climbing Denver Center
Tue 08:36:10 AM 40.0458 -104.7281 343° North 210 242 10,000 393 Climbing Denver Center
Tue 08:37:11 AM 40.1172 -104.7594 341° North 249 287 10,300 738 Climbing Denver Center
Tue 08:38:12 AM 40.1808 -104.7886 341° North 244 281 11,500 1,180 Climbing Denver Center
Tue 08:39:00 AM 40.2452 -104.8371 341° North  Level FlightAware Approximate
Tue 08:39:13 AM 40.2397 -104.8150 341° North 227 261 12,700  Level Denver Center
Tue 08:40:14 AM 40.2972 -104.8433 339° North 223 257 13,900 1,230 Climbing Denver Center
Tue 08:41:15 AM 40.3481 -104.8647 342° North 195 224 15,200 1,180 Climbing Denver Center
Tue 08:42:16 AM 40.4006 -104.8875 342° North 184 212 16,300 1,033 Climbing Denver Center
Tue 08:43:17 AM 40.4533 -104.9089 343° North 194 223 17,300 885 Climbing Denver Center
Tue 08:44:18 AM 40.5075 -104.9311 343° North 207 238 18,100 738 Climbing Denver Center
Tue 08:45:19 AM 40.5628 -104.9514 344° North 208 239 18,800 885 Climbing Denver Center
Tue 08:46:20 AM 40.6214 -104.9772 342° North 206 237 19,900 639 Climbing Denver Center
Tue 08:47:21 AM 40.6831 -104.9975 346° North 231 266 20,100 49 Climbing Denver Center
Tue 08:48:22 AM 40.7494 -105.0267 342° North 255 293 20,000 -49 Descending Denver Center
Tue 08:49:23 AM 40.8203 -105.0600 340° North 268 308 20,000  Level Denver Center
Tue 08:50:24 AM 40.8583 -105.1286 306° West 271 312 20,000  Level Denver Center
Tue 08:51:25 AM 40.9092 -105.2228 306° West 271 312 20,000 49 Level Denver Center
Tue 08:52:26 AM 40.9653 -105.2931 317° Northwest 276 318 20,100 49 Climbing Denver Center
Tue 08:53:27 AM 41.0208 -105.3650 316° Northwest 277 319 20,100  Level Denver Center
Tue 08:54:28 AM 41.0819 -105.4458 315° West 277 319 20,100  Level Denver Center
Tue 08:55:29 AM 41.1289 -105.5200 310° West 275 316 20,100 -49 Level Denver Center
Tue 08:56:30 AM 41.1778 -105.5942 311° West 279 321 20,000 -49 Descending Denver Center
Tue 08:57:31 AM 41.2369 -105.6761 314° West 276 318 20,000  Level Denver Center
Tue 08:58:32 AM 41.2892 -105.7458 315° West 275 316 20,000 -44 Level Denver Center
Tue 08:59:47 AM 41.3569 -105.8417 313° West 277 319 19,900 -44 Descending Denver Center
Tue 09:00:47 AM 41.4078 -105.9119 314° West 274 315 19,900 50 Level Denver Center
Tue 09:01:48 AM 41.4594 -105.9808 315° West 275 316 20,000 98 Climbing Denver Center
Tue 09:02:49 AM 41.5158 -106.0644 312° West 271 312 20,100  Climbing Denver Center
Tue 09:03:50 AM 41.5644 -106.1389 311° West 276 318 20,000  Descending Denver Center
Tue 09:04:51 AM 41.6214 -106.2211 313° West 275 316 20,100  Climbing Denver Center
Tue 09:05:52 AM 41.6756 -106.2883 317° Northwest 271 312 20,000  Descending Denver Center
Tue 09:06:53 AM 41.7272 -106.3575 315° West 273 314 20,100  Climbing Denver Center
Tue 09:07:54 AM 41.7800 -106.4275 315° West 277 319 20,000 -49 Descending Denver Center
Tue 09:08:55 AM 41.8333 -106.5111 311° West 272 313 20,000  Level Denver Center
Tue 09:09:56 AM 41.8822 -106.5864 311° West 276 318 20,000  Level Denver Center
Tue 09:10:57 AM 41.9372 -106.6742 310° West 277 319 20,000  Level Denver Center
Tue 09:11:58 AM 41.9867 -106.7469 312° West 277 319 20,000  Level Denver Center
Tue 09:12:59 AM 42.0361 -106.8203 312° West 276 318 20,000  Level Denver Center
Tue 09:14:00 AM 42.0842 -106.8967 310° West 279 321 20,000  Level Denver Center
Tue 09:15:01 AM 42.1389 -106.9833 310° West 274 315 20,000  Level Denver Center
Tue 09:16:02 AM 42.1997 -107.0667 315° West 277 319 20,000  Level Denver Center
Tue 09:17:03 AM 42.2517 -107.1406 314° West 282 325 20,000  Level Denver Center
Tue 09:18:04 AM 42.2983 -107.2178 309° West 280 322 20,000  Level Denver Center
Tue 09:19:05 AM 42.3550 -107.3067 311° West 283 326 20,000  Level Denver Center
Tue 09:20:06 AM 42.4039 -107.3811 312° West 277 319 20,000  Level Denver Center
Tue 09:21:07 AM 42.4522 -107.4569 311° West 277 319 20,000 -105 Level Denver Center
Tue 09:22:00 AM 42.4969 -107.5369 307° West 280 322 19,800 -632 Descending Salt Lake Center
Tue 09:23:01 AM 42.5533 -107.6117 316° Northwest 296 341 18,800 -1,180 Descending Salt Lake Center
Tue 09:24:02 AM 42.6244 -107.6994 318° Northwest 308 354 17,400 -1,279 Descending Salt Lake Center
Tue 09:25:03 AM 42.6767 -107.7903 308° West 315 362 16,200 -1,328 Descending Salt Lake Center
Tue 09:26:04 AM 42.7253 -107.8836 305° West 317 365 14,700 -1,770 Descending Salt Lake Center
Tue 09:27:05 AM 42.7881 -107.9786 312° West 309 356 12,600 -1,328 Descending Salt Lake Center
Tue 09:28:06 AM 42.8400 -108.0556 313° West 296 341 12,000 -590 Descending Salt Lake Center

Login

Don't have an account? Register now (free) for customized features, flight alerts, and more!